x

New London Ledge Ct - Ledge Light Weather Station (ldlc3) Weather Station

11:55am - Sun 30th Aug 2015 All times are EDT. -4 hours from GMT.

  • Wind
    13mph, 14mph gusts
  • 空気 Temp 74°f
  • Sea Pressure 1018.7mb
  • New London Ledge Ct - Ledge Light Weather Station
  • New London Ledge Ct - Ledge Light Weather Station

More Historic Weather Station data

Upgrade to MSW Pro to gain access to the past 30 days of data for over 8000 Wavebouys and Weather Stations around the globe.

Join Pro

Comparision Forecast

View Surf forecast
   
Sun 08/30 11:55am 13 14 mph 1018.7mb 74f
11:40am 13 15 mph 1018.8mb 74f
11:25am 11 14 mph 1018.8mb 74f
11:10am 10 13 mph 1018.8mb 74f
10:55am 10 13 mph 1018.9mb 74f
10:40am 10 11 mph 1018.8mb 74f
10:25am 11 13 mph 1018.7mb 74f
10:10am 11 13 mph 1018.6mb 73f
9:55am 13 14 mph 1018.6mb 73f
9:40am 13 14 mph 1018.6mb 73f
9:25am 13 15 mph 1018.6mb 73f
9:10am 13 14 mph 1018.6mb 73f
8:55am 14 15 mph 1018.5mb 73f
8:40am 11 14 mph 1018.6mb 73f
8:25am 11 14 mph 1018.7mb 73f
8:10am 13 14 mph 1018.7mb 73f
7:55am 13 15 mph 1018.7mb 73f
7:40am 13 15 mph 1018.5mb 73f
7:25am 14 16 mph 1018.3mb 73f
7:10am 16 17 mph 1018.2mb 73f
6:55am 16 18 mph 1018.1mb 73f
6:40am 13 14 mph 1018.1mb 72f
6:25am 16 18 mph 1017.9mb 72f
6:10am 17 20 mph 1017.8mb 72f
5:55am 17 20 mph 1017.8mb 73f
5:40am 17 20 mph 1017.7mb 73f
5:25am 17 20 mph 1017.7mb 73f
5:10am 17 18 mph 1017.7mb 73f
4:55am 17 18 mph 1017.8mb 73f
4:40am 17 18 mph 1017.8mb 73f
4:25am 16 18 mph 1017.8mb 73f
4:10am 16 17 mph 1017.8mb 73f
3:55am 14 16 mph 1018mb 73f
3:40am 13 14 mph 1018mb 72f
3:25am 11 13 mph 1018mb 72f
3:10am 11 13 mph 1018.2mb 72f
2:55am 10 11 mph 1018.3mb 72f
2:40am 9 10 mph 1018.4mb 72f
2:10am 9
mph
1018.7mb 72f
1:55am 9 10 mph 1018.9mb 72f
1:40am 11 13 mph 1019.1mb 72f
1:25am 11 13 mph 1019.2mb 72f
1:10am 11 13 mph 1019.2mb 72f
Sat 08/29 7:55pm 16 18 mph 1018.8mb 73f
7:40pm 16 17 mph 1018.7mb 74f
7:25pm 14 16 mph 1018.7mb 74f
7:10pm 13 15 mph 1018.7mb 74f
6:55pm 14 15 mph 1018.8mb 74f
6:40pm 14 16 mph 1018.8mb 74f
6:25pm 8 10 mph 1019mb 75f
6:10pm 8 10 mph 1018.9mb 76f
5:55pm 8 9 mph 1019.1mb 75f
5:40pm 8 9 mph 1019.2mb 76f
5:25pm 9 10 mph 1019.3mb 75f
5:10pm 11 13 mph 1019.3mb 75f
4:55pm 13 14 mph 1019.2mb 76f
4:40pm 11 13 mph 1019.3mb 76f
4:25pm 11 13 mph 1019.3mb 76f
4:10pm 11 13 mph 1019.4mb 76f
3:55pm 13 14 mph 1019.6mb 76f
3:40pm 13 14 mph 1019.6mb 75f
3:25pm 14 15 mph 1019.7mb 75f
3:10pm 14 15 mph 1020mb 75f
2:55pm 14 15 mph 1020.2mb 75f
2:40pm 14 16 mph 1020.5mb 75f
2:25pm 14 16 mph 1020.8mb 75f
2:10pm 15 16 mph 1020.9mb 75f
1:55pm 15 17 mph 1021mb 74f
1:40pm 16 17 mph 1021.2mb 74f
1:25pm 14 15 mph 1021.4mb 74f
1:10pm 14 16 mph 1021.3mb 73f
12:55pm 15 16 mph 1021.5mb 73f
12:40pm 14 16 mph 1021.8mb 74f
12:25pm 11 14 mph 1021.9mb 73f
12:10pm 13 14 mph 1022mb 73f
11:55am 11 14 mph 1022.1mb 73f
11:40am 11 13 mph 1022.2mb 73f
11:25am 9 11 mph 1022.4mb 73f
11:10am 8 10 mph 1022.4mb 73f
10:55am 8 10 mph 1022.4mb 72f
10:40am 6 7 mph 1022.5mb 74f
10:25am 5 6 mph 1022.6mb 73f
10:10am 5 6 mph 1022.6mb 73f
9:55am 3
mph
1022.6mb 73f
9:40am 2 3 mph 1022.6mb 74f
9:25am 1 2 mph 1022.5mb 73f
9:10am 1 2 mph 1022.5mb 74f
8:55am 3 5 mph 1022.5mb 70f
8:40am 6 8 mph 1022.5mb 69f
8:25am 8 9 mph 1022.5mb 68f
8:10am 8 9 mph 1022.4mb 67f
7:55am 9 10 mph 1022.4mb 67f
7:40am 8 9 mph 1022.3mb 67f
7:25am 7 8 mph 1022.2mb 65f
7:10am 9 10 mph 1022.1mb 65f
6:55am 10 11 mph 1022mb 65f
6:40am 11
mph
1021.9mb 64f
6:25am 11 13 mph 1021.8mb 64f
6:10am 9 10 mph 1021.5mb 64f
5:55am 9 10 mph 1021.4mb 64f
5:40am 10
mph
1021.3mb 64f
5:25am 9
mph
1021.3mb 64f
5:10am 9 10 mph 1021.3mb 65f
4:55am 9
mph
1021.3mb 65f
4:40am 8 9 mph 1021.1mb 65f
4:25am 9 10 mph 1021.1mb 65f
4:10am 10 11 mph 1021.3mb 66f
3:55am 10
mph
1021.3mb 65f
3:40am 10
mph
1021.3mb 66f
3:25am 10 11 mph 1021.3mb 66f
3:10am 9 10 mph 1021.2mb 66f
2:55am 7
mph
1021.2mb 67f
2:40am 7 8 mph 1021.2mb 67f
2:25am 6 7 mph 1021.3mb 67f
2:10am 5 6 mph 1021.3mb 68f
1:55am 3 5 mph 1021.4mb 68f
1:40am 2 3 mph 1021.4mb 68f
1:25am 2 3 mph 1021.4mb 68f
1:10am 5 6 mph 1021.5mb 69f
Fri 08/28 7:55pm 9 10 mph 1020.2mb 72f
7:40pm 10 11 mph 1020mb 73f
7:25pm 10 11 mph 1019.8mb 73f
7:10pm 10 13 mph 1019.8mb 73f
6:55pm 10 11 mph 1019.7mb 73f
6:40pm 10 11 mph 1019.7mb 74f
6:25pm 9 11 mph 1019.7mb 74f
6:10pm 9 11 mph 1019.7mb 74f
5:55pm 9 10 mph 1019.6mb 74f
5:40pm 10 11 mph 1019.4mb 74f
5:25pm 11 13 mph 1019.4mb 74f
5:10pm 11 13 mph 1019.5mb 74f
4:55pm 11 13 mph 1019.4mb 74f
4:40pm 11 13 mph 1019.3mb 74f
4:25pm 11 14 mph 1019.6mb 74f
4:10pm 11 14 mph 1019.8mb 74f
3:55pm 11 14 mph 1019.9mb 74f
3:40pm 11 13 mph 1020mb 74f
3:25pm 11 13 mph 1019.9mb 74f
3:10pm 10 11 mph 1019.9mb 74f
2:55pm 10 13 mph 1020mb 73f
2:40pm 10 11 mph 1020.2mb 74f
2:25pm 11 13 mph 1020.2mb 73f
2:10pm 11 13 mph 1020.2mb 74f
1:55pm 11
mph
1020.4mb 74f
1:40pm 13
mph
1020.5mb 73f
1:25pm 11 13 mph 1020.6mb 73f
1:10pm 11 14 mph 1020.6mb 72f
12:55pm 13
mph
1020.7mb 72f
12:40pm 11 13 mph 1020.7mb 72f
12:25pm 11
mph
1020.9mb 72f
12:10pm 11 13 mph 1021mb 72f
11:55am 10 11 mph 1021.1mb 72f
11:40am 8 9 mph 1021.1mb 72f
11:25am 6 7 mph 1021.1mb 72f
11:10am 5 6 mph 1021mb 73f
10:55am 2 3 mph 1021mb 74f
10:40am 5 6 mph 1021mb 74f
10:25am 6 9 mph 1020.9mb 73f
10:10am 7 9 mph 1020.9mb 72f
9:55am 9 11 mph 1020.7mb 71f
9:40am 10 11 mph 1020.5mb 71f
9:25am 10 11 mph 1020.5mb 70f
9:10am 11 13 mph 1020.4mb 69f
8:55am 11 13 mph 1020.2mb 69f
8:40am 14 15 mph 1020.3mb 68f
8:25am 14 16 mph 1020.3mb 67f
8:10am 15 17 mph 1020.2mb 67f
7:55am 16 18 mph 1020mb 66f
7:40am 17 21 mph 1019.9mb 65f
7:25am 16 17 mph 1019.8mb 64f
7:10am 14 15 mph 1019.8mb 64f
6:55am 14 16 mph 1019.7mb 64f
6:40am 15 16 mph 1019.4mb 63f
6:25am 15 17 mph 1019.2mb 63f
6:10am 16 18 mph 1019.1mb 63f
5:55am 17 18 mph 1019mb 63f
5:40am 14 16 mph 1018.9mb 63f
5:25am 15 17 mph 1018.7mb 64f
5:10am 16 17 mph 1018.8mb 64f
4:55am 16 17 mph 1018.7mb 64f
4:40am 13 14 mph 1018.7mb 64f
4:25am 15 16 mph 1018.6mb 65f
4:10am 13 15 mph 1018.6mb 65f
3:55am 14 16 mph 1018.5mb 65f
3:40am 13 15 mph 1018.6mb 65f
3:25am 14 15 mph 1018.5mb 65f
3:10am 15 16 mph 1018.5mb 66f
2:55am 14 16 mph 1018.4mb 66f
2:40am 13 14 mph 1018.3mb 65f
2:25am 13 15 mph 1018.4mb 65f
2:10am 15 17 mph 1018.4mb 66f
1:55am 14 16 mph 1018.5mb 66f
1:40am 13 16 mph 1018.5mb 66f
1:25am 13 15 mph 1018.6mb 66f
1:10am 13 14 mph 1018.7mb 67f
Thu 08/27 7:55pm 6 7 mph 1016.5mb 73f
7:40pm 6
mph
1016.4mb 74f
7:25pm 6
mph
1016.4mb 74f
7:10pm 7 8 mph 1016.3mb 75f
6:55pm 7 8 mph 1016.2mb 76f
6:40pm 10 13 mph 1016.1mb 76f
6:25pm 11 15 mph 1016.1mb 76f
6:10pm 13 14 mph 1015.9mb 75f
5:55pm 14 17 mph 1015.9mb 74f
5:40pm 15 17 mph 1015.8mb 74f
5:25pm 16 20 mph 1015.7mb 73f
5:10pm 17 20 mph 1015.4mb 73f
4:55pm 17 21 mph 1015.3mb 74f
4:40pm 18 22 mph 1015.3mb 74f
4:25pm 17 20 mph 1015.3mb 73f
4:10pm 17 21 mph 1015.3mb 74f
3:55pm 20 22 mph 1015.3mb 73f
3:40pm 20 21 mph 1015.4mb 73f
3:25pm 20 22 mph 1015.5mb 73f
3:10pm 20 21 mph 1015.5mb 73f
2:55pm 20 22 mph 1015.6mb 73f
2:40pm 21 23 mph 1015.5mb 72f
2:25pm 20 23 mph 1015.8mb 72f
2:10pm 20 22 mph 1015.8mb 72f
1:55pm 20 21 mph 1015.9mb 73f
1:40pm 18 21 mph 1015.9mb 72f
1:25pm 16 17 mph 1015.9mb 73f
1:10pm 17 20 mph 1016mb 73f
12:55pm 15 20 mph 1016mb 74f
12:40pm 14 18 mph 1015.9mb 74f
12:25pm 10 14 mph 1016.2mb 76f
12:10pm 15 20 mph 1016.1mb 74f
11:55am 9 14 mph 1016.3mb 75f
11:40am 13 18 mph 1016.3mb 74f
11:25am 14 16 mph 1016.4mb 74f
11:10am 13 17 mph 1016.5mb 74f
10:55am 16 20 mph 1016.4mb 73f
10:40am 16 20 mph 1016.5mb 73f
10:25am 14 17 mph 1016.5mb 73f
10:10am 16 24 mph 1016.3mb 73f
9:55am 16 18 mph 1016.3mb 73f
9:40am 17 21 mph 1016mb 72f
9:25am 21 25 mph 1015.9mb 71f
9:10am 20 25 mph 1015.9mb 71f
8:55am 23 26 mph 1015.8mb 70f
8:40am 16 21 mph 1015.9mb 70f
8:25am 9 14 mph 1016.1mb 70f
8:10am 8 10 mph 1016.1mb 69f
7:55am 9 11 mph 1015.8mb 68f
7:40am 10 13 mph 1015.8mb 68f
7:25am 11 14 mph 1015.5mb 68f
7:10am 13 16 mph 1015.3mb 67f
6:55am 11 15 mph 1015.3mb 66f
6:40am 13 15 mph 1015.2mb 65f
6:25am 13 16 mph 1015mb 65f
6:10am 11 15 mph 1014.8mb 65f
5:55am 13 15 mph 1014.7mb 66f
5:40am 14 16 mph 1014.5mb 66f
5:25am 13 15 mph 1014.4mb 66f
5:10am 15 17 mph 1014.2mb 66f
4:55am 14 17 mph 1014.2mb 67f
4:40am 14 15 mph 1014.1mb 67f
4:25am 13 16 mph 1014mb 67f
4:10am 11 13 mph 1013.9mb 67f
3:55am 11 14 mph 1013.9mb 68f
3:40am 13 15 mph 1013.9mb 68f
3:25am 14 16 mph 1014mb 68f
3:10am 14 16 mph 1014mb 68f
2:55am 14 16 mph 1014mb 68f
2:40am 13 16 mph 1014mb 68f
2:25am 14 15 mph 1014.1mb 68f
2:10am 15 17 mph 1014.1mb 69f
1:55am 15 16 mph 1014.3mb 69f
1:40am 14 15 mph 1014.4mb 69f
1:25am 15 16 mph 1014.5mb 70f
1:10am 13 15 mph 1014.7mb 70f
Wed 08/26 7:55pm 7
mph
1012.9mb 75f
7:40pm 6
mph
1012.8mb 75f
7:25pm 7 8 mph 1012.6mb 75f
7:10pm 9 10 mph 1012.5mb 76f
6:55pm 15 16 mph 1012.2mb 75f
6:40pm 15 16 mph 1012.1mb 74f
6:25pm 17 20 mph 1012mb 75f
6:10pm 16 17 mph 1012mb 75f
5:55pm 16 17 mph 1012mb 75f
5:40pm 20 22 mph 1011.9mb 75f
5:25pm 20 22 mph 1011.9mb 75f
5:10pm 22 24 mph 1011.8mb 75f
4:55pm 20 24 mph 1012mb 75f
4:40pm 18 21 mph 1012.1mb 75f